Time;durP1;ratioP1;P1;durP2;ratioP2;P2;SDS_P1;SDS_P2;PMS_P1;PMS_P2;Temp;Humidity;BMP_temperature;BMP_pressure;BME280_temperature;BME280_humidity;BME280_pressure;Samples;Min_cycle;Max_cycle;Signal;HPM_P1;HPM_P2
2022/01/01 00:02:22;;;;;;;13.75;9.90;;;;;;;15.75;54.33;97714.28;5091351;28;20482;-30
2022/01/01 00:04:48;;;;;;;13.57;10.25;;;;;;;15.75;54.43;97712.31;5091109;28;20031;-29
2022/01/01 00:07:15;;;;;;;13.07;10.02;;;;;;;15.74;54.42;97719.00;5091423;28;20498;-30
2022/01/01 00:09:41;;;;;;;13.75;10.13;;;;;;;15.76;54.29;97722.06;5093224;28;20043;-29
2022/01/01 00:12:07;;;;;;;15.18;10.02;;;;;;;15.75;54.39;97714.28;5093336;28;20461;-29
2022/01/01 00:14:33;;;;;;;13.75;10.32;;;;;;;15.74;54.45;97724.47;5093226;28;20073;-29
2022/01/01 00:17:00;;;;;;;16.13;10.48;;;;;;;15.73;54.56;97719.41;5093213;28;20027;-30
2022/01/01 00:19:26;;;;;;;16.40;9.82;;;;;;;15.74;54.30;97723.69;5093292;28;20114;-29
2022/01/01 00:21:51;;;;;;;14.85;10.00;;;;;;;15.77;54.18;97737.28;5093028;28;20066;-29
2022/01/01 00:24:16;;;;;;;15.65;11.10;;;;;;;15.70;54.46;97723.03;5092984;28;20115;-29
2022/01/01 00:26:42;;;;;;;14.98;10.13;;;;;;;15.72;54.28;97726.84;5093079;28;20064;-30
2022/01/01 00:29:07;;;;;;;13.23;9.63;;;;;;;15.75;54.17;97727.97;5093244;28;20024;-29
2022/01/01 00:31:33;;;;;;;15.82;10.52;;;;;;;15.76;54.35;97724.81;5093030;28;20024;-30
2022/01/01 00:33:59;;;;;;;15.23;9.60;;;;;;;15.75;54.17;97733.44;5093308;28;20470;-29
2022/01/01 00:36:28;;;;;;;13.95;9.88;;;;;;;15.73;54.20;97731.13;5091834;28;20027;-29
2022/01/01 00:38:54;;;;;;;14.73;10.20;;;;;;;15.78;54.12;97733.34;5093416;28;20107;-30
2022/01/01 00:41:19;;;;;;;15.05;10.45;;;;;;;15.73;54.13;97730.34;5092959;28;20107;-29
2022/01/01 00:43:45;;;;;;;14.23;9.25;;;;;;;15.74;54.11;97737.38;5092807;28;20069;-29
2022/01/01 00:46:11;;;;;;;14.30;9.73;;;;;;;15.68;54.25;97737.13;5092797;28;20085;-29
2022/01/01 00:48:37;;;;;;;14.07;9.73;;;;;;;15.72;53.98;97723.34;5092855;28;20020;-29
2022/01/01 00:51:02;;;;;;;13.52;9.75;;;;;;;15.74;53.90;97727.19;5092608;28;20547;-30
2022/01/01 00:53:28;;;;;;;17.02;9.93;;;;;;;15.68;54.03;97709.00;5092875;28;20028;-29
2022/01/01 00:55:53;;;;;;;12.75;8.82;;;;;;;15.77;53.96;97711.91;5093135;28;20024;-30
2022/01/01 00:58:19;;;;;;;13.40;9.10;;;;;;;15.75;53.96;97706.09;5094646;28;20522;-29
2022/01/01 01:00:45;;;;;;;13.25;8.98;;;;;;;15.72;53.93;97702.22;5095427;28;20374;-31
2022/01/01 01:03:12;;;;;;;15.50;9.85;;;;;;;15.72;53.89;97709.66;5096650;28;20061;-29
2022/01/01 01:05:39;;;;;;;14.57;9.38;;;;;;;15.68;53.82;97712.50;5096589;28;20038;-30
2022/01/01 01:08:08;;;;;;;14.20;9.30;;;;;;;15.70;53.85;97714.81;5096402;28;20024;-30
2022/01/01 01:10:35;;;;;;;12.82;9.27;;;;;;;15.71;53.69;97699.91;5095128;28;20161;-32
2022/01/01 01:13:01;;;;;;;11.65;8.60;;;;;;;15.72;53.56;97709.66;5096604;28;20027;-30
2022/01/01 01:15:27;;;;;;;13.25;9.05;;;;;;;15.69;53.57;97716.78;5095052;28;20481;-30
2022/01/01 01:17:53;;;;;;;14.13;9.07;;;;;;;15.74;53.45;97716.25;5096309;28;20103;-29
2022/01/01 01:20:20;;;;;;;11.25;7.80;;;;;;;15.73;53.49;97713.94;5096361;28;20370;-30
2022/01/01 01:22:47;;;;;;;11.80;7.95;;;;;;;15.70;53.60;97709.34;5094855;28;20035;-30
2022/01/01 01:25:13;;;;;;;10.60;7.35;;;;;;;15.72;53.45;97704.19;5096198;28;20095;-30
2022/01/01 01:27:39;;;;;;;12.15;7.85;;;;;;;15.72;53.49;97712.41;5096059;28;20024;-31
2022/01/01 01:30:08;;;;;;;11.52;7.32;;;;;;;15.70;53.46;97710.09;5096435;28;20363;-30
2022/01/01 01:32:33;;;;;;;9.95;7.15;;;;;;;15.72;53.49;97712.41;5095940;28;20393;-29
2022/01/01 01:34:59;;;;;;;9.38;6.68;;;;;;;15.68;53.63;97707.03;5094916;28;20078;-30
2022/01/01 01:37:24;;;;;;;10.15;6.93;;;;;;;15.69;53.60;97710.53;5095902;28;20074;-29
2022/01/01 01:39:50;;;;;;;9.75;7.03;;;;;;;15.64;53.98;97711.81;5095849;28;20024;-30
2022/01/01 01:42:15;;;;;;;9.95;7.07;;;;;;;15.62;53.79;97713.44;5096289;28;20490;-30
2022/01/01 01:44:47;;;;;;;9.77;6.72;;;;;;;15.69;53.60;97703.13;5095692;28;20016;-30
2022/01/01 01:47:16;;;;;;;10.20;6.90;;;;;;;15.66;53.60;97709.44;5096239;28;20024;-29
2022/01/01 01:49:44;;;;;;;10.07;6.88;;;;;;;15.68;53.43;97700.81;5094557;28;20032;-30
2022/01/01 01:52:11;;;;;;;10.43;6.90;;;;;;;15.71;53.43;97700.69;5095520;28;20075;-30
2022/01/01 01:54:38;;;;;;;12.07;6.97;;;;;;;15.67;53.53;97702.00;5095596;28;20031;-29
2022/01/01 01:57:04;;;;;;;10.73;7.22;;;;;;;15.69;53.52;97699.59;5095908;28;20016;-30
2022/01/01 01:59:30;;;;;;;9.90;6.18;;;;;;;15.66;53.46;97689.53;5095578;28;20474;-30
2022/01/01 02:01:55;;;;;;;11.40;6.75;;;;;;;15.72;53.32;97688.56;5095610;28;20058;-30
2022/01/01 02:04:21;;;;;;;10.18;6.53;;;;;;;15.66;53.48;97682.09;5095319;28;20024;-29
2022/01/01 02:06:48;;;;;;;9.45;6.28;;;;;;;15.67;53.35;97677.38;5094016;28;20032;-30
2022/01/01 02:09:14;;;;;;;9.43;6.20;;;;;;;15.67;53.51;97671.91;5094371;28;20473;-30
2022/01/01 02:11:41;;;;;;;9.68;6.00;;;;;;;15.67;53.24;97669.19;5095361;28;20034;-31
2022/01/01 02:14:20;;;;;;;8.55;5.35;;;;;;;15.65;53.42;97675.06;5095283;28;20107;-30
2022/01/01 02:19:25;;;;;;;8.70;5.57;;;;;;;15.69;53.50;97675.75;5095327;28;20031;-30
2022/01/01 02:21:53;;;;;;;7.60;5.55;;;;;;;15.68;53.52;97670.72;5095274;28;20020;-30
2022/01/01 02:24:20;;;;;;;8.52;4.90;;;;;;;15.67;53.45;97678.16;5095104;28;20024;-30
2022/01/01 02:26:45;;;;;;;8.30;5.47;;;;;;;15.64;53.71;97668.06;5094932;28;20103;-30
2022/01/01 02:29:11;;;;;;;7.25;4.95;;;;;;;15.58;53.26;97669.03;5093764;28;20111;-30
2022/01/01 02:31:36;;;;;;;6.32;4.43;;;;;;;15.61;53.60;97662.69;5094887;28;20027;-30
2022/01/01 02:34:04;;;;;;;7.95;4.47;;;;;;;15.56;53.46;97665.94;5094791;28;20399;-30
2022/01/01 02:36:34;;;;;;;8.60;4.75;;;;;;;15.62;53.49;97658.75;5094819;28;20027;-30
2022/01/01 02:39:00;;;;;;;7.50;4.45;;;;;;;15.62;53.39;97661.47;5095210;28;20051;-30
2022/01/01 02:41:26;;;;;;;5.85;4.20;;;;;;;15.63;53.42;97666.53;5094821;28;20495;-29
2022/01/01 02:43:52;;;;;;;5.28;4.18;;;;;;;15.65;53.42;97663.38;5094859;28;20535;-30
2022/01/01 02:46:18;;;;;;;5.78;4.15;;;;;;;15.67;53.41;97663.72;5094447;28;20028;-30
2022/01/01 02:48:45;;;;;;;6.53;4.30;;;;;;;15.62;53.33;97664.22;5094593;28;20377;-30
2022/01/01 02:51:11;;;;;;;5.95;3.78;;;;;;;15.60;53.42;97672.06;5094509;28;20048;-30
2022/01/01 02:53:40;;;;;;;5.10;3.97;;;;;;;15.62;53.33;97669.69;5094634;28;20115;-30
2022/01/01 02:56:05;;;;;;;5.38;3.85;;;;;;;15.59;53.58;97670.53;5094305;28;20436;-29
2022/01/01 02:58:31;;;;;;;4.72;3.60;;;;;;;15.66;53.44;97671.16;5094438;28;20024;-29
2022/01/01 03:00:56;;;;;;;5.25;3.78;;;;;;;15.67;53.37;97663.72;5094409;28;20028;-29
2022/01/01 03:03:21;;;;;;;6.05;3.90;;;;;;;15.66;53.38;97670.38;5094387;28;20023;-29
2022/01/01 03:05:47;;;;;;;5.22;3.70;;;;;;;15.62;53.25;97672.41;5094313;28;20047;-29
2022/01/01 03:08:12;;;;;;;5.40;3.40;;;;;;;15.59;53.54;97665.06;5094240;28;20024;-30
2022/01/01 03:10:38;;;;;;;4.93;3.50;;;;;;;15.63;53.28;97676.69;5094101;28;20485;-30
2022/01/01 03:13:03;;;;;;;5.75;3.65;;;;;;;15.59;53.49;97668.56;5094107;28;20034;-29
2022/01/01 03:15:28;;;;;;;5.38;3.45;;;;;;;15.61;53.19;97662.69;5094227;28;20020;-30
2022/01/01 03:17:56;;;;;;;4.15;3.50;;;;;;;15.60;53.31;97656.44;5094213;28;20511;-29
2022/01/01 03:20:21;;;;;;;5.45;3.83;;;;;;;15.57;53.31;97656.56;5093886;28;20047;-30
2022/01/01 03:22:47;;;;;;;5.50;3.15;;;;;;;15.62;53.19;97653.28;5094096;28;20466;-29
2022/01/01 03:25:12;;;;;;;4.72;3.45;;;;;;;15.54;53.26;97657.38;5094606;28;20020;-30
2022/01/01 03:27:38;;;;;;;4.97;3.35;;;;;;;15.58;53.08;97669.03;5093848;28;20539;-29
2022/01/01 03:30:04;;;;;;;5.57;3.78;;;;;;;15.56;53.14;97655.78;5094097;28;20416;-29
2022/01/01 03:32:29;;;;;;;4.07;3.08;;;;;;;15.58;53.04;97667.03;5093899;28;20061;-29
2022/01/01 03:34:56;;;;;;;5.88;3.60;;;;;;;15.57;53.09;97662.03;5093938;28;20027;-29
2022/01/01 03:37:21;;;;;;;4.22;3.13;;;;;;;15.68;52.81;97654.31;5092348;28;20016;-30
2022/01/01 03:39:47;;;;;;;4.47;2.90;;;;;;;15.55;53.12;97658.94;5093837;28;20090;-30
2022/01/01 03:42:12;;;;;;;4.47;3.20;;;;;;;15.61;52.92;97668.16;5093628;28;20024;-29
2022/01/01 03:44:38;;;;;;;5.32;3.05;;;;;;;15.54;53.31;97649.94;5093486;28;21034;-29
2022/01/01 03:47:09;;;;;;;3.83;2.90;;;;;;;15.60;53.11;97639.25;5093552;28;20169;-29
2022/01/01 03:49:36;;;;;;;6.75;3.33;;;;;;;15.55;53.20;97637.06;5093818;28;20080;-30
2022/01/01 03:52:02;;;;;;;4.35;3.20;;;;;;;15.58;53.25;97636.97;5093585;28;20490;-30
2022/01/01 03:54:28;;;;;;;4.57;2.85;;;;;;;15.62;53.04;97654.06;5092396;28;20516;-30
2022/01/01 03:56:53;;;;;;;5.07;3.40;;;;;;;15.60;53.02;97642.78;5093480;28;20017;-29
2022/01/01 03:59:20;;;;;;;4.72;3.08;;;;;;;15.65;52.81;97644.22;5093349;28;20035;-30
2022/01/01 04:01:46;;;;;;;3.70;3.05;;;;;;;15.53;52.85;97640.19;5093526;28;20542;-30
2022/01/01 04:04:11;;;;;;;4.10;3.25;;;;;;;15.53;53.01;97640.19;5093539;28;20089;-29
2022/01/01 04:06:37;;;;;;;4.65;3.40;;;;;;;15.60;52.89;97639.25;5093162;28;20056;-29
2022/01/01 04:09:02;;;;;;;3.53;2.90;;;;;;;15.53;52.93;97644.91;5093378;28;20024;-29
2022/01/01 04:11:28;;;;;;;5.13;3.45;;;;;;;15.55;52.84;97643.31;5106189;28;20046;-29
2022/01/01 04:13:54;;;;;;;4.57;3.30;;;;;;;15.55;53.17;97637.84;5113544;28;20027;-30
2022/01/01 04:16:21;;;;;;;3.72;3.08;;;;;;;15.54;52.83;97640.97;5109210;28;20016;-29
2022/01/01 04:18:46;;;;;;;4.30;3.55;;;;;;;15.51;52.86;97641.81;5093411;28;20471;-31
2022/01/01 04:21:12;;;;;;;4.22;3.00;;;;;;;15.52;52.86;97651.56;5093230;28;20028;-30
2022/01/01 04:23:39;;;;;;;3.92;3.15;;;;;;;15.53;52.73;97648.41;5093297;28;20529;-29
2022/01/01 04:26:07;;;;;;;4.45;3.05;;;;;;;15.49;52.64;97650.44;5093102;28;20024;-29
2022/01/01 04:28:33;;;;;;;4.97;3.35;;;;;;;15.54;52.38;97652.69;5109557;28;20015;-30
2022/01/01 04:30:58;;;;;;;5.13;3.42;;;;;;;15.54;52.55;97652.69;5112466;28;20118;-30
2022/01/01 04:33:24;;;;;;;5.38;3.40;;;;;;;15.46;52.70;97643.88;5105713;28;20099;-29
2022/01/01 04:35:50;;;;;;;4.20;2.70;;;;;;;15.50;52.40;97651.22;5098475;28;20085;-30
2022/01/01 04:38:35;;;;;;;4.32;2.92;;;;;;;15.52;52.45;97643.38;5095666;28;20185;-29
2022/01/01 04:41:02;;;;;;;3.90;2.95;;;;;;;15.54;52.08;97646.44;5112301;28;20366;-29
2022/01/01 04:43:27;;;;;;;4.50;3.15;;;;;;;15.53;52.18;97639.44;5097105;28;20111;-30
2022/01/01 04:45:53;;;;;;;5.38;3.65;;;;;;;15.51;52.31;97637.13;5113899;28;20026;-30
2022/01/01 04:48:18;;;;;;;3.83;2.88;;;;;;;15.53;52.24;97633.97;5117234;28;20028;-30
2022/01/01 04:50:44;;;;;;;3.97;2.95;;;;;;;15.52;52.13;97626.97;5117274;28;20081;-29
2022/01/01 04:53:14;;;;;;;3.45;2.63;;;;;;;15.49;52.15;97627.81;5117357;28;20019;-30
2022/01/01 04:55:40;;;;;;;4.22;2.97;;;;;;;15.50;52.14;97624.66;5117357;28;20016;-29
2022/01/01 04:58:05;;;;;;;4.15;2.83;;;;;;;15.57;52.05;97624.50;5117111;28;20073;-29
2022/01/01 05:00:30;;;;;;;5.90;4.03;;;;;;;15.53;52.01;97632.00;5117263;28;20024;-29
2022/01/01 05:02:56;;;;;;;3.88;3.35;;;;;;;15.52;52.14;97629.69;5117409;28;20036;-30
2022/01/01 05:05:21;;;;;;;5.80;3.85;;;;;;;15.54;52.02;97633.53;5117402;28;20015;-30
2022/01/01 05:07:47;;;;;;;7.32;4.28;;;;;;;15.58;52.13;97636.22;5115532;28;20481;-29
2022/01/01 05:10:12;;;;;;;6.72;4.38;;;;;;;15.52;52.30;97638.66;5116981;28;20019;-29
2022/01/01 05:12:38;;;;;;;7.60;4.78;;;;;;;15.49;52.23;97641.47;5116903;28;20020;-29
2022/01/01 05:15:03;;;;;;;7.13;4.68;;;;;;;15.49;52.30;97639.50;5117061;28;20023;-30
2022/01/01 05:17:29;;;;;;;8.07;5.10;;;;;;;15.44;52.36;97637.31;5117361;28;20362;-29
2022/01/01 05:19:54;;;;;;;8.43;4.85;;;;;;;15.41;52.38;97636.19;5116964;28;20028;-29
2022/01/01 05:22:19;;;;;;;8.40;5.07;;;;;;;15.43;52.47;97631.06;5116647;27;20028;-29
2022/01/01 05:24:45;;;;;;;6.22;4.45;;;;;;;15.47;52.41;97625.50;5116643;28;20023;-30
2022/01/01 05:27:10;;;;;;;8.00;4.38;;;;;;;15.46;52.24;97632.94;5116624;28;20027;-30
2022/01/01 05:29:36;;;;;;;6.45;4.40;;;;;;;15.42;52.28;97636.97;5116553;28;20031;-30
2022/01/01 05:32:01;;;;;;;7.45;4.20;;;;;;;15.41;52.19;97638.94;5116578;28;20038;-29
2022/01/01 05:34:27;;;;;;;6.75;4.20;;;;;;;15.46;51.91;97635.66;5116446;28;20051;-30
2022/01/01 05:36:52;;;;;;;6.18;4.40;;;;;;;15.43;52.08;97639.28;5116307;28;20020;-29
2022/01/01 05:39:18;;;;;;;9.25;4.68;;;;;;;15.45;52.04;97642.31;5116559;28;20047;-29
2022/01/01 05:41:43;;;;;;;6.85;4.60;;;;;;;15.50;51.90;97634.81;5116376;28;20498;-30
2022/01/01 05:44:08;;;;;;;8.00;4.95;;;;;;;15.45;52.09;97633.38;5116339;28;20401;-29
2022/01/01 05:46:34;;;;;;;7.25;4.60;;;;;;;15.39;52.28;97635.09;5116076;28;20024;-29
2022/01/01 05:49:00;;;;;;;8.35;4.65;;;;;;;15.43;52.14;97641.25;5116296;28;20401;-30
2022/01/01 05:51:26;;;;;;;8.57;4.38;;;;;;;15.45;52.20;97650.53;5116212;28;20156;-30
2022/01/01 05:53:51;;;;;;;7.50;4.47;;;;;;;15.49;52.04;97655.16;5116620;28;20489;-29
2022/01/01 05:56:16;;;;;;;7.20;4.47;;;;;;;15.43;52.20;97668.56;5116300;28;20023;-30
2022/01/01 05:58:42;;;;;;;8.80;4.80;;;;;;;15.43;51.98;97663.88;5116192;28;20024;-29
2022/01/01 06:01:07;;;;;;;5.35;3.55;;;;;;;15.42;51.82;97667.81;5116269;28;20026;-28
2022/01/01 06:03:33;;;;;;;6.93;4.22;;;;;;;15.44;51.85;97670.13;5115908;28;20055;-30
2022/01/01 06:05:58;;;;;;;6.18;3.65;;;;;;;15.42;51.91;97656.09;5115754;28;20027;-30
2022/01/01 06:08:28;;;;;;;5.60;3.65;;;;;;;15.41;51.70;97660.03;5115994;28;20020;-29
2022/01/01 06:10:55;;;;;;;7.05;3.92;;;;;;;15.42;51.79;97662.34;5115752;28;20031;-29
2022/01/01 06:13:20;;;;;;;4.50;3.10;;;;;;;15.35;52.04;97650.78;5115677;28;20023;-30
2022/01/01 06:15:46;;;;;;;6.03;3.63;;;;;;;15.36;51.69;97657.81;5116093;27;20478;-29
2022/01/01 06:18:11;;;;;;;5.45;3.50;;;;;;;15.44;51.69;97656.44;5115508;28;20023;-29
2022/01/01 06:20:37;;;;;;;4.82;3.25;;;;;;;15.40;51.67;97659.25;5115645;28;20026;-29
2022/01/01 06:23:06;;;;;;;4.22;3.50;;;;;;;15.41;51.56;97669.00;5115506;28;20477;-29
2022/01/01 06:25:33;;;;;;;5.32;3.88;;;;;;;15.40;51.69;97672.16;5115410;28;20047;-31
2022/01/01 06:27:59;;;;;;;5.20;3.88;;;;;;;15.41;51.55;97673.69;5115440;28;20390;-29
2022/01/01 06:30:24;;;;;;;5.13;3.47;;;;;;;15.42;51.65;97672.50;5115469;28;20110;-29
2022/01/01 06:32:51;;;;;;;4.20;3.25;;;;;;;15.43;51.60;97674.03;5115259;28;20019;-29
2022/01/01 06:35:17;;;;;;;6.50;3.53;;;;;;;15.40;51.56;97674.91;5115709;28;20031;-30
2022/01/01 06:37:42;;;;;;;4.75;3.33;;;;;;;15.35;51.37;97678.91;5115225;28;20023;-29
2022/01/01 06:40:08;;;;;;;5.95;3.70;;;;;;;15.37;51.46;97681.97;5115098;27;20180;-30
2022/01/01 06:42:34;;;;;;;4.80;3.35;;;;;;;15.36;51.50;97685.91;5115309;27;20063;-29
2022/01/01 06:44:59;;;;;;;4.28;3.20;;;;;;;15.39;51.17;97678.81;5115094;28;20055;-29
2022/01/01 06:47:25;;;;;;;4.95;3.38;;;;;;;15.36;51.06;97679.66;5115104;28;20031;-29
2022/01/01 06:49:50;;;;;;;4.60;3.38;;;;;;;15.35;51.02;97681.63;5114898;28;20030;-29
2022/01/01 06:52:16;;;;;;;4.72;3.28;;;;;;;15.39;50.81;97673.34;5114892;28;20513;-30
2022/01/01 06:54:41;;;;;;;4.88;2.95;;;;;;;15.41;50.63;97681.91;5114800;28;20350;-29
2022/01/01 06:57:07;;;;;;;4.53;3.25;;;;;;;15.38;50.77;97678.06;5114547;28;20030;-30
2022/01/01 06:59:32;;;;;;;4.15;3.35;;;;;;;15.35;51.03;97683.59;5114859;28;20373;-29
2022/01/01 07:01:58;;;;;;;4.40;3.25;;;;;;;15.32;50.74;97685.25;5114873;28;20019;-29
2022/01/01 07:04:23;;;;;;;4.00;3.22;;;;;;;15.34;50.66;97691.03;5114488;28;20027;-30
2022/01/01 07:06:49;;;;;;;5.75;3.30;;;;;;;15.24;50.81;97692.06;5114626;28;20042;-29
2022/01/01 07:09:14;;;;;;;4.95;3.35;;;;;;;15.28;50.61;97692.75;5114769;28;20428;-29
2022/01/01 07:11:40;;;;;;;4.38;3.47;;;;;;;15.33;50.30;97700.41;5114935;27;20031;-29
2022/01/01 07:14:06;;;;;;;4.90;3.88;;;;;;;15.27;50.15;97699.41;5114429;28;20034;-29
2022/01/01 07:16:31;;;;;;;4.55;3.78;;;;;;;15.33;49.84;97703.16;5114520;28;20023;-29
2022/01/01 07:18:57;;;;;;;4.50;3.67;;;;;;;15.28;49.53;97706.41;5114752;28;20024;-30
2022/01/01 07:21:22;;;;;;;4.60;3.55;;;;;;;15.25;49.59;97701.78;5114753;28;20480;-29
2022/01/01 07:23:48;;;;;;;5.03;3.45;;;;;;;15.26;49.52;97711.53;5114548;28;20015;-29
2022/01/01 07:26:13;;;;;;;4.00;3.33;;;;;;;15.28;49.47;97717.34;5114269;28;20023;-30
2022/01/01 07:28:39;;;;;;;5.88;3.72;;;;;;;15.31;49.48;97721.19;5114195;28;20389;-30
2022/01/01 07:31:04;;;;;;;4.95;4.13;;;;;;;15.28;49.72;97716.56;5114547;28;20025;-29
2022/01/01 07:33:30;;;;;;;5.55;3.97;;;;;;;15.35;49.54;97719.13;5114190;28;20027;-29
2022/01/01 07:35:55;;;;;;;6.65;3.92;;;;;;;15.26;49.71;97714.25;5114322;28;20422;-29
2022/01/01 07:38:24;;;;;;;4.75;4.25;;;;;;;15.28;49.44;97722.81;5114345;28;20023;-29
2022/01/01 07:40:50;;;;;;;4.85;4.35;;;;;;;15.34;49.35;97729.28;5114333;28;20019;-29
2022/01/01 07:43:17;;;;;;;5.97;5.03;;;;;;;15.31;49.12;97734.88;5114197;28;20055;-29
2022/01/01 07:45:44;;;;;;;4.80;4.10;;;;;;;15.26;49.73;97730.66;5113957;27;20461;-30
2022/01/01 07:48:10;;;;;;;5.22;4.25;;;;;;;15.23;49.48;97736.19;5114073;28;20057;-29
2022/01/01 07:50:37;;;;;;;4.90;4.20;;;;;;;15.26;49.23;97740.81;5113733;28;20028;-29
2022/01/01 07:53:03;;;;;;;4.90;4.28;;;;;;;15.27;49.61;97745.09;5113848;28;20036;-30
2022/01/01 07:55:28;;;;;;;5.20;4.32;;;;;;;15.32;49.41;97748.09;5113909;28;20027;-29
2022/01/01 07:57:53;;;;;;;5.13;4.47;;;;;;;15.25;49.43;97737.31;5113690;28;20477;-30
2022/01/01 08:00:19;;;;;;;7.15;5.47;;;;;;;15.31;49.55;97749.31;5113924;28;20026;-28
2022/01/01 08:02:46;;;;;;;7.63;5.82;;;;;;;15.15;49.46;97748.50;5113717;28;20115;-29
2022/01/01 08:05:13;;;;;;;8.07;5.85;;;;;;;15.27;49.35;97748.59;5113713;28;20023;-29
2022/01/01 08:07:39;;;;;;;6.80;5.75;;;;;;;15.26;49.36;97752.53;5112879;28;20116;-29
2022/01/01 08:10:06;;;;;;;6.13;4.72;;;;;;;15.25;49.44;97745.53;5113664;28;20016;-30
2022/01/01 08:12:32;;;;;;;5.63;4.60;;;;;;;15.22;49.59;97749.09;5114108;28;20101;-30
2022/01/01 08:14:58;;;;;;;6.75;4.75;;;;;;;15.24;49.45;97741.25;5113721;28;20024;-29
2022/01/01 08:17:24;;;;;;;5.57;4.60;;;;;;;15.28;49.57;97749.38;5113437;28;20462;-29
2022/01/01 08:19:50;;;;;;;7.00;4.47;;;;;;;15.28;49.48;97750.16;5113459;28;20094;-30
2022/01/01 08:22:16;;;;;;;6.47;4.60;;;;;;;15.21;49.92;97746.78;5113479;28;20031;-29
2022/01/01 08:24:42;;;;;;;4.97;4.30;;;;;;;15.23;49.91;97747.91;5113356;28;20373;-29
2022/01/01 08:27:07;;;;;;;5.03;4.25;;;;;;;15.26;50.02;97746.28;5113343;28;20024;-29
2022/01/01 08:29:33;;;;;;;5.13;3.97;;;;;;;15.25;49.86;97740.06;5113481;28;20073;-30
2022/01/01 08:31:58;;;;;;;5.57;3.97;;;;;;;15.25;49.81;97744.75;5113319;28;20466;-29
2022/01/01 08:34:25;;;;;;;5.18;3.85;;;;;;;15.28;49.85;97750.16;5113684;28;20032;-29
2022/01/01 08:36:50;;;;;;;5.20;3.78;;;;;;;15.22;50.14;97746.38;5113556;28;20015;-30
2022/01/01 08:39:16;;;;;;;4.18;3.40;;;;;;;15.28;50.22;97747.41;5113734;28;20031;-29
2022/01/01 08:41:46;;;;;;;3.83;3.40;;;;;;;15.32;50.18;97745.38;5113230;28;20055;-29
2022/01/01 08:44:12;;;;;;;4.25;3.40;;;;;;;15.29;50.31;97743.50;5113380;28;20481;-29
2022/01/01 08:46:38;;;;;;;3.35;3.00;;;;;;;15.24;50.19;97730.31;5111882;28;20035;-29
2022/01/01 08:49:05;;;;;;;3.20;2.90;;;;;;;15.28;50.47;97739.22;5113355;28;20024;-29
2022/01/01 08:51:33;;;;;;;4.13;3.42;;;;;;;15.31;50.33;97737.59;5113045;28;20078;-30
2022/01/01 08:53:58;;;;;;;3.45;2.95;;;;;;;15.31;50.49;97743.06;5113172;28;20508;-29
2022/01/01 08:56:24;;;;;;;3.72;3.17;;;;;;;15.27;50.69;97740.41;5113381;28;20051;-29
2022/01/01 08:58:49;;;;;;;4.30;3.53;;;;;;;15.22;50.63;97738.16;5113211;28;20469;-30
2022/01/01 09:01:15;;;;;;;3.53;2.92;;;;;;;15.29;50.44;97745.44;5113088;28;20063;-29
2022/01/01 09:03:41;;;;;;;3.17;2.60;;;;;;;15.34;50.65;97750.38;5113217;28;20019;-30
2022/01/01 09:06:08;;;;;;;3.20;2.90;;;;;;;15.27;50.99;97753.31;5087351;28;20040;-30
2022/01/01 09:08:39;;;;;;;3.33;2.80;;;;;;;15.33;50.72;97751.63;5070399;28;20044;-30
2022/01/01 09:11:05;;;;;;;3.50;2.80;;;;;;;15.30;51.06;97749.72;5070448;28;20031;-29
2022/01/01 09:13:31;;;;;;;3.20;2.72;;;;;;;15.32;51.01;97750.84;5070297;28;20102;-30
2022/01/01 09:15:57;;;;;;;3.17;2.88;;;;;;;15.32;51.08;97759.03;5070205;28;20425;-30
2022/01/01 09:18:23;;;;;;;3.88;2.53;;;;;;;15.35;51.07;97760.13;5069240;28;20040;-29
2022/01/01 09:20:48;;;;;;;4.05;2.70;;;;;;;15.37;51.08;97763.22;5074093;28;20067;-30
2022/01/01 09:23:14;;;;;;;3.40;2.75;;;;;;;15.13;51.96;97765.31;5071918;28;20036;-29
2022/01/01 09:25:40;;;;;;;2.63;2.35;;;;;;;15.28;51.70;97763.81;5073745;28;20024;-30
2022/01/01 09:28:05;;;;;;;2.50;2.30;;;;;;;15.36;51.52;97778.06;5073657;28;20039;-30
2022/01/01 09:30:31;;;;;;;2.83;2.35;;;;;;;15.26;51.80;97771.66;5073669;28;20447;-30
2022/01/01 09:32:56;;;;;;;2.42;2.22;;;;;;;15.30;51.79;97768.84;5073715;28;20032;-28
2022/01/01 09:35:22;;;;;;;2.42;2.22;;;;;;;15.32;51.75;97767.25;5072468;28;20028;-30
2022/01/01 09:37:48;;;;;;;3.28;2.97;;;;;;;15.32;51.70;97769.97;5073682;28;20035;-30
2022/01/01 09:40:13;;;;;;;2.75;2.50;;;;;;;15.36;51.70;97764.41;5073741;28;20017;-29
2022/01/01 09:42:40;;;;;;;2.65;2.10;;;;;;;15.29;51.91;97773.56;5085565;28;20016;-29
2022/01/01 09:45:07;;;;;;;2.40;2.20;;;;;;;15.21;52.40;97771.38;5093905;28;20027;-29
2022/01/01 09:47:32;;;;;;;2.30;2.05;;;;;;;15.28;52.22;97763.81;5093656;28;20028;-30
2022/01/01 09:49:58;;;;;;;2.10;1.90;;;;;;;15.29;52.07;97765.34;5093771;28;20103;-29
2022/01/01 09:52:24;;;;;;;2.30;2.10;;;;;;;15.32;52.27;97767.25;5093511;28;20068;-29
2022/01/01 09:54:51;;;;;;;2.30;2.10;;;;;;;15.29;52.29;97772.78;5093296;28;20036;-30
2022/01/01 09:57:17;;;;;;;2.33;2.05;;;;;;;15.35;52.38;97765.59;5092170;28;20302;-29
2022/01/01 09:59:44;;;;;;;2.70;1.98;;;;;;;15.28;52.39;97771.25;5093621;28;20141;-29
2022/01/01 10:02:09;;;;;;;2.15;1.95;;;;;;;15.30;52.45;97768.84;5093726;28;20020;-29
2022/01/01 10:04:52;;;;;;;2.20;2.00;;;;;;;15.32;52.44;97775.44;5093426;28;20098;-29
2022/01/01 10:07:27;;;;;;;2.70;2.10;;;;;;;15.36;52.43;97776.09;5093376;28;20069;-30
2022/01/01 10:09:52;;;;;;;2.30;2.10;;;;;;;15.42;52.58;97770.91;5093276;28;20054;-29
2022/01/01 10:12:19;;;;;;;3.10;2.20;;;;;;;15.37;52.65;97769.44;5093388;28;20020;-29
2022/01/01 10:14:48;;;;;;;2.35;2.15;;;;;;;15.34;52.77;97770.28;5092058;28;20632;-29
2022/01/01 10:17:22;;;;;;;2.55;2.20;;;;;;;15.32;52.78;97772.72;5093098;28;20024;-29
2022/01/01 10:19:50;;;;;;;2.75;2.40;;;;;;;15.36;53.07;97765.19;5092983;28;20047;-29
2022/01/01 10:22:21;;;;;;;2.92;2.50;;;;;;;15.35;52.99;97776.53;5091365;28;20383;-29
2022/01/01 10:27:46;;;;;;;3.20;2.10;;;;;;;15.35;52.93;97771.84;5093078;28;20093;-29
2022/01/01 10:30:20;;;;;;;2.50;2.25;;;;;;;15.30;53.27;97772.34;5092025;28;20462;-29
2022/01/01 10:33:05;;;;;;;3.50;2.30;;;;;;;15.36;53.19;97769.88;5093046;28;20023;-29
2022/01/01 10:35:56;;;;;;;2.33;2.05;;;;;;;15.32;53.29;97771.94;5093070;28;20081;-29
2022/01/01 10:38:27;;;;;;;3.97;2.45;;;;;;;15.28;53.70;97774.75;5093017;28;20026;-29
2022/01/01 10:41:09;;;;;;;2.95;2.58;;;;;;;15.31;53.87;97767.66;5092787;28;20035;-29
2022/01/01 10:43:43;;;;;;;3.60;2.42;;;;;;;15.37;53.60;97774.91;5092801;28;20030;-29
2022/01/01 10:46:16;;;;;;;4.43;2.50;;;;;;;15.31;53.85;97775.88;5092728;28;20035;-30
2022/01/01 10:48:58;;;;;;;2.88;2.50;;;;;;;15.34;53.59;97778.50;5092546;28;20024;-30
2022/01/01 10:51:24;;;;;;;4.03;2.42;;;;;;;15.26;54.06;97774.41;5091261;28;20073;-29
2022/01/01 10:54:03;;;;;;;3.60;2.90;;;;;;;15.31;53.83;97773.91;5090961;28;20089;-29
2022/01/01 10:56:37;;;;;;;3.38;2.75;;;;;;;15.34;53.64;97773.03;5092578;28;20020;-29
2022/01/01 10:59:04;;;;;;;3.72;2.90;;;;;;;15.37;53.59;97768.69;5090836;28;20073;-29
2022/01/01 11:01:32;;;;;;;4.68;2.95;;;;;;;15.32;53.94;97766.47;5092555;28;20107;-29
2022/01/01 11:03:58;;;;;;;4.15;3.42;;;;;;;15.34;54.03;97775.00;5092350;28;20020;-29
2022/01/01 11:06:24;;;;;;;4.07;3.20;;;;;;;15.39;54.13;97761.59;5091904;28;20016;-29
2022/01/01 11:08:50;;;;;;;3.28;2.58;;;;;;;15.37;54.12;97769.44;5092099;28;20042;-29
2022/01/01 11:11:16;;;;;;;4.22;2.95;;;;;;;15.35;54.38;97769.09;5091959;28;20495;-29
2022/01/01 11:13:43;;;;;;;3.88;2.95;;;;;;;15.20;54.76;97765.16;5092146;28;20038;-29
2022/01/01 11:16:10;;;;;;;4.35;2.83;;;;;;;15.34;54.44;97770.28;5092056;28;20032;-29
2022/01/01 11:18:37;;;;;;;4.53;3.08;;;;;;;15.35;54.43;97771.84;5091896;28;20081;-29
2022/01/01 11:21:05;;;;;;;3.92;3.10;;;;;;;15.44;54.19;97763.06;5091816;28;20028;-29
2022/01/01 11:23:31;;;;;;;4.85;3.60;;;;;;;15.40;54.46;97773.31;5091958;28;20466;-30
2022/01/01 11:25:57;;;;;;;6.82;3.92;;;;;;;15.09;55.58;97770.84;5091786;28;20040;-28
2022/01/01 11:28:23;;;;;;;4.25;3.40;;;;;;;15.25;55.00;97770.13;5092084;28;20048;-29
2022/01/01 11:30:59;;;;;;;5.00;3.55;;;;;;;15.42;54.63;97770.91;5091482;28;20070;-29
2022/01/01 11:33:31;;;;;;;4.07;3.28;;;;;;;15.36;54.71;97767.91;5091856;28;20062;-29
2022/01/01 11:35:58;;;;;;;4.80;3.90;;;;;;;15.37;54.87;97758.50;5091989;28;20132;-29